sensor_id;sensor_type;location;lat;lon;timestamp;temperature;humidity
74376;HTU21D;62812;55.188;61.302;2022-09-09T00:00:14;7.03;81.92
74376;HTU21D;62812;55.188;61.302;2022-09-09T00:02:50;7.00;82.01
74376;HTU21D;62812;55.188;61.302;2022-09-09T00:05:25;6.98;82.22
74376;HTU21D;62812;55.188;61.302;2022-09-09T00:07:55;6.97;82.06
74376;HTU21D;62812;55.188;61.302;2022-09-09T00:10:27;6.95;82.20
74376;HTU21D;62812;55.188;61.302;2022-09-09T00:13:01;6.97;81.58
74376;HTU21D;62812;55.188;61.302;2022-09-09T00:15:36;6.94;82.07
74376;HTU21D;62812;55.188;61.302;2022-09-09T00:18:13;6.90;82.84
74376;HTU21D;62812;55.188;61.302;2022-09-09T00:20:46;6.87;82.23
74376;HTU21D;62812;55.188;61.302;2022-09-09T00:23:19;6.89;82.16
74376;HTU21D;62812;55.188;61.302;2022-09-09T00:26:02;6.90;81.94
74376;HTU21D;62812;55.188;61.302;2022-09-09T00:28:48;6.93;81.78
74376;HTU21D;62812;55.188;61.302;2022-09-09T00:31:23;6.91;82.30
74376;HTU21D;62812;55.188;61.302;2022-09-09T00:33:52;6.90;81.82
74376;HTU21D;62812;55.188;61.302;2022-09-09T00:36:22;6.90;81.49
74376;HTU21D;62812;55.188;61.302;2022-09-09T00:38:53;6.90;82.14
74376;HTU21D;62812;55.188;61.302;2022-09-09T00:41:31;6.91;81.98
74376;HTU21D;62812;55.188;61.302;2022-09-09T00:44:19;6.93;82.23
74376;HTU21D;62812;55.188;61.302;2022-09-09T00:46:55;6.90;82.64
74376;HTU21D;62812;55.188;61.302;2022-09-09T00:49:30;6.91;82.25
74376;HTU21D;62812;55.188;61.302;2022-09-09T00:52:05;6.93;82.14
74376;HTU21D;62812;55.188;61.302;2022-09-09T00:54:46;6.90;82.39
74376;HTU21D;62812;55.188;61.302;2022-09-09T00:57:22;6.90;82.42
74376;HTU21D;62812;55.188;61.302;2022-09-09T00:59:55;6.89;82.60
74376;HTU21D;62812;55.188;61.302;2022-09-09T01:02:28;6.93;82.27
74376;HTU21D;62812;55.188;61.302;2022-09-09T01:05:00;6.95;81.92
74376;HTU21D;62812;55.188;61.302;2022-09-09T01:07:31;6.97;81.84
74376;HTU21D;62812;55.188;61.302;2022-09-09T01:09:59;6.99;82.14
74376;HTU21D;62812;55.188;61.302;2022-09-09T01:12:35;7.00;81.90
74376;HTU21D;62812;55.188;61.302;2022-09-09T01:15:12;7.05;82.13
74376;HTU21D;62812;55.188;61.302;2022-09-09T01:17:56;7.11;81.81
74376;HTU21D;62812;55.188;61.302;2022-09-09T01:20:27;7.16;81.14
74376;HTU21D;62812;55.188;61.302;2022-09-09T01:23:20;7.20;81.25
74376;HTU21D;62812;55.188;61.302;2022-09-09T01:26:13;7.28;80.91
74376;HTU21D;62812;55.188;61.302;2022-09-09T01:28:44;7.33;80.48
74376;HTU21D;62812;55.188;61.302;2022-09-09T01:31:19;7.37;80.07
74376;HTU21D;62812;55.188;61.302;2022-09-09T01:33:47;7.40;79.88
74376;HTU21D;62812;55.188;61.302;2022-09-09T01:36:22;7.44;79.94
74376;HTU21D;62812;55.188;61.302;2022-09-09T01:38:53;7.49;79.98
74376;HTU21D;62812;55.188;61.302;2022-09-09T01:41:24;7.54;79.95
74376;HTU21D;62812;55.188;61.302;2022-09-09T01:43:53;7.57;79.55
74376;HTU21D;62812;55.188;61.302;2022-09-09T01:46:21;7.62;79.92
74376;HTU21D;62812;55.188;61.302;2022-09-09T01:48:52;7.63;79.78
74376;HTU21D;62812;55.188;61.302;2022-09-09T01:51:20;7.68;79.40
74376;HTU21D;62812;55.188;61.302;2022-09-09T01:53:47;7.73;79.13
74376;HTU21D;62812;55.188;61.302;2022-09-09T01:56:34;7.78;79.19
74376;HTU21D;62812;55.188;61.302;2022-09-09T01:59:16;7.83;78.38
74376;HTU21D;62812;55.188;61.302;2022-09-09T02:01:48;7.85;78.46
74376;HTU21D;62812;55.188;61.302;2022-09-09T02:04:40;7.85;79.11
74376;HTU21D;62812;55.188;61.302;2022-09-09T02:07:28;7.90;78.81
74376;HTU21D;62812;55.188;61.302;2022-09-09T02:10:02;7.93;79.31
74376;HTU21D;62812;55.188;61.302;2022-09-09T02:15:26;8.07;78.57
74376;HTU21D;62812;55.188;61.302;2022-09-09T02:18:24;8.08;78.53
74376;HTU21D;62812;55.188;61.302;2022-09-09T02:21:34;8.15;78.63
74376;HTU21D;62812;55.188;61.302;2022-09-09T02:24:09;8.18;78.11
74376;HTU21D;62812;55.188;61.302;2022-09-09T02:26:49;8.19;77.84
74376;HTU21D;62812;55.188;61.302;2022-09-09T02:29:29;8.24;77.99
74376;HTU21D;62812;55.188;61.302;2022-09-09T02:32:11;8.29;78.02
74376;HTU21D;62812;55.188;61.302;2022-09-09T02:34:46;8.35;78.11
74376;HTU21D;62812;55.188;61.302;2022-09-09T02:37:16;8.37;78.24
74376;HTU21D;62812;55.188;61.302;2022-09-09T02:39:54;8.42;78.05
74376;HTU21D;62812;55.188;61.302;2022-09-09T02:42:32;8.47;77.44
74376;HTU21D;62812;55.188;61.302;2022-09-09T02:45:19;8.52;78.02
74376;HTU21D;62812;55.188;61.302;2022-09-09T02:47:51;8.56;78.10
74376;HTU21D;62812;55.188;61.302;2022-09-09T02:50:44;8.62;78.18
74376;HTU21D;62812;55.188;61.302;2022-09-09T02:54:01;8.71;77.27
74376;HTU21D;62812;55.188;61.302;2022-09-09T03:01:29;8.80;76.79
74376;HTU21D;62812;55.188;61.302;2022-09-09T03:03:35;8.88;77.50
74376;HTU21D;62812;55.188;61.302;2022-09-09T03:06:28;8.95;76.53
74376;HTU21D;62812;55.188;61.302;2022-09-09T03:09:26;8.97;77.08
74376;HTU21D;62812;55.188;61.302;2022-09-09T03:12:04;9.02;77.27
74376;HTU21D;62812;55.188;61.302;2022-09-09T03:14:42;9.04;76.51
74376;HTU21D;62812;55.188;61.302;2022-09-09T03:17:25;9.11;75.92
74376;HTU21D;62812;55.188;61.302;2022-09-09T03:19:56;9.15;75.59
74376;HTU21D;62812;55.188;61.302;2022-09-09T03:25:49;9.19;75.37
74376;HTU21D;62812;55.188;61.302;2022-09-09T03:28:27;9.24;75.73
74376;HTU21D;62812;55.188;61.302;2022-09-09T03:31:09;9.29;74.74
74376;HTU21D;62812;55.188;61.302;2022-09-09T03:33:48;9.32;74.91
74376;HTU21D;62812;55.188;61.302;2022-09-09T03:36:35;9.38;74.96
74376;HTU21D;62812;55.188;61.302;2022-09-09T03:39:13;9.46;74.68
74376;HTU21D;62812;55.188;61.302;2022-09-09T03:41:51;9.48;74.09
74376;HTU21D;62812;55.188;61.302;2022-09-09T03:45:18;9.59;74.70
74376;HTU21D;62812;55.188;61.302;2022-09-09T03:48:17;9.75;73.75
74376;HTU21D;62812;55.188;61.302;2022-09-09T03:55:32;10.01;73.50
74376;HTU21D;62812;55.188;61.302;2022-09-09T03:57:12;10.14;73.72
74376;HTU21D;62812;55.188;61.302;2022-09-09T03:59:44;10.29;72.70
74376;HTU21D;62812;55.188;61.302;2022-09-09T04:02:32;10.39;73.58
74376;HTU21D;62812;55.188;61.302;2022-09-09T04:05:09;10.58;72.87
74376;HTU21D;62812;55.188;61.302;2022-09-09T04:07:39;10.72;71.32
74376;HTU21D;62812;55.188;61.302;2022-09-09T04:10:35;10.87;71.87
74376;HTU21D;62812;55.188;61.302;2022-09-09T04:13:28;10.96;71.42
74376;HTU21D;62812;55.188;61.302;2022-09-09T04:16:31;11.09;70.92
74376;HTU21D;62812;55.188;61.302;2022-09-09T04:19:37;11.29;70.34
74376;HTU21D;62812;55.188;61.302;2022-09-09T04:23:11;11.41;69.81
74376;HTU21D;62812;55.188;61.302;2022-09-09T04:27:00;11.57;69.38
74376;HTU21D;62812;55.188;61.302;2022-09-09T04:30:11;11.71;69.20
74376;HTU21D;62812;55.188;61.302;2022-09-09T04:34:11;11.84;68.68
74376;HTU21D;62812;55.188;61.302;2022-09-09T04:40:38;12.37;67.64
74376;HTU21D;62812;55.188;61.302;2022-09-09T04:43:18;12.64;65.43
74376;HTU21D;62812;55.188;61.302;2022-09-09T04:49:34;13.11;63.86
74376;HTU21D;62812;55.188;61.302;2022-09-09T04:59:36;13.40;62.68
74376;HTU21D;62812;55.188;61.302;2022-09-09T05:06:39;13.45;61.84
74376;HTU21D;62812;55.188;61.302;2022-09-09T05:09:07;13.50;62.69
74376;HTU21D;62812;55.188;61.302;2022-09-09T05:11:56;13.50;62.31
74376;HTU21D;62812;55.188;61.302;2022-09-09T05:19:48;13.80;61.41
74376;HTU21D;62812;55.188;61.302;2022-09-09T05:22:43;13.91;60.05
74376;HTU21D;62812;55.188;61.302;2022-09-09T05:26:51;13.89;60.16
74376;HTU21D;62812;55.188;61.302;2022-09-09T06:04:46;14.51;59.06
74376;HTU21D;62812;55.188;61.302;2022-09-09T06:08:00;14.62;59.57
74376;HTU21D;62812;55.188;61.302;2022-09-09T06:10:42;14.78;58.16
74376;HTU21D;62812;55.188;61.302;2022-09-09T06:36:45;15.32;55.72
74376;HTU21D;62812;55.188;61.302;2022-09-09T06:42:42;15.15;55.34
74376;HTU21D;62812;55.188;61.302;2022-09-09T06:45:29;15.16;55.94
74376;HTU21D;62812;55.188;61.302;2022-09-09T06:48:20;15.21;54.56
74376;HTU21D;62812;55.188;61.302;2022-09-09T06:51:05;15.10;54.17
74376;HTU21D;62812;55.188;61.302;2022-09-09T07:33:00;14.88;55.55
74376;HTU21D;62812;55.188;61.302;2022-09-09T07:36:08;15.00;55.63
74376;HTU21D;62812;55.188;61.302;2022-09-09T07:39:30;15.12;56.79
74376;HTU21D;62812;55.188;61.302;2022-09-09T07:42:38;15.14;55.52
74376;HTU21D;62812;55.188;61.302;2022-09-09T07:45:26;15.09;56.18
74376;HTU21D;62812;55.188;61.302;2022-09-09T07:59:26;15.55;52.42
74376;HTU21D;62812;55.188;61.302;2022-09-09T08:02:01;15.47;51.61
74376;HTU21D;62812;55.188;61.302;2022-09-09T08:05:30;15.42;50.91
74376;HTU21D;62812;55.188;61.302;2022-09-09T08:20:18;15.69;51.43
74376;HTU21D;62812;55.188;61.302;2022-09-09T08:23:01;15.62;52.10
74376;HTU21D;62812;55.188;61.302;2022-09-09T08:26:22;15.58;52.76
74376;HTU21D;62812;55.188;61.302;2022-09-09T08:30:05;15.38;52.30
74376;HTU21D;62812;55.188;61.302;2022-09-09T08:33:32;15.51;55.12
74376;HTU21D;62812;55.188;61.302;2022-09-09T08:36:24;15.54;56.04
74376;HTU21D;62812;55.188;61.302;2022-09-09T08:39:26;15.56;51.53
74376;HTU21D;62812;55.188;61.302;2022-09-09T09:30:37;16.37;49.75
74376;HTU21D;62812;55.188;61.302;2022-09-09T09:34:15;16.42;51.46
74376;HTU21D;62812;55.188;61.302;2022-09-09T09:37:45;16.44;47.67
74376;HTU21D;62812;55.188;61.302;2022-09-09T09:41:11;16.26;50.51
74376;HTU21D;62812;55.188;61.302;2022-09-09T10:18:59;14.73;62.85
74376;HTU21D;62812;55.188;61.302;2022-09-09T10:26:03;13.99;67.14
74376;HTU21D;62812;55.188;61.302;2022-09-09T10:30:53;13.70;69.38
74376;HTU21D;62812;55.188;61.302;2022-09-09T10:33:32;13.61;69.52
74376;HTU21D;62812;55.188;61.302;2022-09-09T10:38:04;13.59;68.60
74376;HTU21D;62812;55.188;61.302;2022-09-09T10:40:17;13.59;68.10
74376;HTU21D;62812;55.188;61.302;2022-09-09T10:43:49;13.62;65.44
74376;HTU21D;62812;55.188;61.302;2022-09-09T10:48:18;13.71;62.60
74376;HTU21D;62812;55.188;61.302;2022-09-09T11:15:39;14.29;57.02
74376;HTU21D;62812;55.188;61.302;2022-09-09T11:20:17;14.26;57.80
74376;HTU21D;62812;55.188;61.302;2022-09-09T11:23:59;14.19;57.97
74376;HTU21D;62812;55.188;61.302;2022-09-09T11:27:59;14.19;59.34
74376;HTU21D;62812;55.188;61.302;2022-09-09T11:51:37;14.00;58.82
74376;HTU21D;62812;55.188;61.302;2022-09-09T12:02:57;14.34;54.95
74376;HTU21D;62812;55.188;61.302;2022-09-09T16:26:53;11.51;63.16
74376;HTU21D;62812;55.188;61.302;2022-09-09T16:30:52;11.63;63.34
74376;HTU21D;62812;55.188;61.302;2022-09-09T16:34:20;11.67;62.05
74376;HTU21D;62812;55.188;61.302;2022-09-09T17:24:31;11.49;63.90
74376;HTU21D;62812;55.188;61.302;2022-09-09T17:32:16;11.30;63.70
74376;HTU21D;62812;55.188;61.302;2022-09-09T17:36:13;11.26;65.24
74376;HTU21D;62812;55.188;61.302;2022-09-09T17:39:47;11.16;65.83
74376;HTU21D;62812;55.188;61.302;2022-09-09T17:54:01;10.98;66.31
74376;HTU21D;62812;55.188;61.302;2022-09-09T18:41:00;10.35;68.13
74376;HTU21D;62812;55.188;61.302;2022-09-09T18:47:07;10.36;68.20
74376;HTU21D;62812;55.188;61.302;2022-09-09T18:51:20;10.38;68.46
74376;HTU21D;62812;55.188;61.302;2022-09-09T18:54:15;10.43;68.29
74376;HTU21D;62812;55.188;61.302;2022-09-09T18:57:33;10.38;68.26
74376;HTU21D;62812;55.188;61.302;2022-09-09T19:04:40;10.31;68.54
74376;HTU21D;62812;55.188;61.302;2022-09-09T19:08:22;10.28;68.53
74376;HTU21D;62812;55.188;61.302;2022-09-09T19:18:52;10.25;69.43
74376;HTU21D;62812;55.188;61.302;2022-09-09T19:22:02;10.21;69.37
74376;HTU21D;62812;55.188;61.302;2022-09-09T19:24:30;10.13;69.88
74376;HTU21D;62812;55.188;61.302;2022-09-09T19:27:03;10.11;70.03
74376;HTU21D;62812;55.188;61.302;2022-09-09T19:29:34;10.08;71.20
74376;HTU21D;62812;55.188;61.302;2022-09-09T19:32:04;10.01;71.40
74376;HTU21D;62812;55.188;61.302;2022-09-09T19:34:43;9.99;71.48
74376;HTU21D;62812;55.188;61.302;2022-09-09T19:37:31;9.95;71.16
74376;HTU21D;62812;55.188;61.302;2022-09-09T19:40:04;9.94;70.55
74376;HTU21D;62812;55.188;61.302;2022-09-09T19:42:56;9.91;71.32
74376;HTU21D;62812;55.188;61.302;2022-09-09T19:45:36;9.88;71.22
74376;HTU21D;62812;55.188;61.302;2022-09-09T19:48:07;9.82;72.32
74376;HTU21D;62812;55.188;61.302;2022-09-09T19:50:47;9.77;72.83
74376;HTU21D;62812;55.188;61.302;2022-09-09T19:53:14;9.75;72.65
74376;HTU21D;62812;55.188;61.302;2022-09-09T19:55:46;9.71;72.93
74376;HTU21D;62812;55.188;61.302;2022-09-09T19:58:19;9.68;72.71
74376;HTU21D;62812;55.188;61.302;2022-09-09T20:00:48;9.67;73.35
74376;HTU21D;62812;55.188;61.302;2022-09-09T20:03:15;9.64;73.78
74376;HTU21D;62812;55.188;61.302;2022-09-09T20:05:56;9.59;74.28
74376;HTU21D;62812;55.188;61.302;2022-09-09T20:08:30;9.52;75.00
74376;HTU21D;62812;55.188;61.302;2022-09-09T20:11:03;9.52;74.90
74376;HTU21D;62812;55.188;61.302;2022-09-09T20:13:43;9.53;74.86
74376;HTU21D;62812;55.188;61.302;2022-09-09T20:16:30;9.51;75.25
74376;HTU21D;62812;55.188;61.302;2022-09-09T20:18:59;9.50;75.83
74376;HTU21D;62812;55.188;61.302;2022-09-09T20:21:29;9.51;75.46
74376;HTU21D;62812;55.188;61.302;2022-09-09T20:24:11;9.52;75.99
74376;HTU21D;62812;55.188;61.302;2022-09-09T20:26:48;9.53;76.31
74376;HTU21D;62812;55.188;61.302;2022-09-09T20:29:38;9.55;76.92
74376;HTU21D;62812;55.188;61.302;2022-09-09T20:32:13;9.53;77.13
74376;HTU21D;62812;55.188;61.302;2022-09-09T20:34:54;9.55;76.89
74376;HTU21D;62812;55.188;61.302;2022-09-09T20:37:25;9.56;76.57
74376;HTU21D;62812;55.188;61.302;2022-09-09T20:39:59;9.57;76.44
74376;HTU21D;62812;55.188;61.302;2022-09-09T20:42:27;9.60;76.95
74376;HTU21D;62812;55.188;61.302;2022-09-09T20:44:56;9.59;77.37
74376;HTU21D;62812;55.188;61.302;2022-09-09T20:47:30;9.59;77.02
74376;HTU21D;62812;55.188;61.302;2022-09-09T20:50:00;9.61;77.32
74376;HTU21D;62812;55.188;61.302;2022-09-09T20:52:31;9.64;76.11
74376;HTU21D;62812;55.188;61.302;2022-09-09T20:54:58;9.68;75.68
74376;HTU21D;62812;55.188;61.302;2022-09-09T20:57:27;9.69;76.30
74376;HTU21D;62812;55.188;61.302;2022-09-09T20:59:54;9.68;76.19
74376;HTU21D;62812;55.188;61.302;2022-09-09T21:02:21;9.66;76.63
74376;HTU21D;62812;55.188;61.302;2022-09-09T21:04:51;9.67;76.91
74376;HTU21D;62812;55.188;61.302;2022-09-09T21:07:36;9.67;76.79
74376;HTU21D;62812;55.188;61.302;2022-09-09T21:10:14;9.65;76.71
74376;HTU21D;62812;55.188;61.302;2022-09-09T21:12:41;9.61;76.40
74376;HTU21D;62812;55.188;61.302;2022-09-09T21:15:09;9.62;76.14
74376;HTU21D;62812;55.188;61.302;2022-09-09T21:17:36;9.63;76.33
74376;HTU21D;62812;55.188;61.302;2022-09-09T21:20:06;9.56;76.75
74376;HTU21D;62812;55.188;61.302;2022-09-09T21:22:40;9.53;76.92
74376;HTU21D;62812;55.188;61.302;2022-09-09T21:25:08;9.50;77.19
74376;HTU21D;62812;55.188;61.302;2022-09-09T21:27:41;9.49;76.85
74376;HTU21D;62812;55.188;61.302;2022-09-09T21:30:09;9.48;77.62
74376;HTU21D;62812;55.188;61.302;2022-09-09T21:32:36;9.41;77.98
74376;HTU21D;62812;55.188;61.302;2022-09-09T21:35:04;9.37;78.27
74376;HTU21D;62812;55.188;61.302;2022-09-09T21:37:35;9.32;78.86
74376;HTU21D;62812;55.188;61.302;2022-09-09T21:40:02;9.26;79.07
74376;HTU21D;62812;55.188;61.302;2022-09-09T21:42:36;9.24;79.08
74376;HTU21D;62812;55.188;61.302;2022-09-09T21:45:05;9.25;78.79
74376;HTU21D;62812;55.188;61.302;2022-09-09T21:47:32;9.26;78.96
74376;HTU21D;62812;55.188;61.302;2022-09-09T21:49:59;9.25;79.01
74376;HTU21D;62812;55.188;61.302;2022-09-09T21:52:28;9.24;78.97
74376;HTU21D;62812;55.188;61.302;2022-09-09T21:54:57;9.20;78.49
74376;HTU21D;62812;55.188;61.302;2022-09-09T21:57:24;9.15;78.43
74376;HTU21D;62812;55.188;61.302;2022-09-09T21:59:52;9.12;78.68
74376;HTU21D;62812;55.188;61.302;2022-09-09T22:02:20;9.11;78.62
74376;HTU21D;62812;55.188;61.302;2022-09-09T22:04:50;9.09;78.90
74376;HTU21D;62812;55.188;61.302;2022-09-09T22:07:17;9.05;79.07
74376;HTU21D;62812;55.188;61.302;2022-09-09T22:09:44;8.98;79.68
74376;HTU21D;62812;55.188;61.302;2022-09-09T22:12:11;8.90;79.98
74376;HTU21D;62812;55.188;61.302;2022-09-09T22:14:38;8.85;80.08
74376;HTU21D;62812;55.188;61.302;2022-09-09T22:17:06;8.81;80.07
74376;HTU21D;62812;55.188;61.302;2022-09-09T22:19:34;8.73;80.46
74376;HTU21D;62812;55.188;61.302;2022-09-09T22:22:01;8.64;80.36
74376;HTU21D;62812;55.188;61.302;2022-09-09T22:24:28;8.53;81.01
74376;HTU21D;62812;55.188;61.302;2022-09-09T22:26:55;8.50;81.15
74376;HTU21D;62812;55.188;61.302;2022-09-09T22:29:22;8.47;80.83
74376;HTU21D;62812;55.188;61.302;2022-09-09T22:31:48;8.43;80.07
74376;HTU21D;62812;55.188;61.302;2022-09-09T22:34:16;8.38;78.79
74376;HTU21D;62812;55.188;61.302;2022-09-09T22:36:44;8.31;79.14
74376;HTU21D;62812;55.188;61.302;2022-09-09T22:39:11;8.28;79.84
74376;HTU21D;62812;55.188;61.302;2022-09-09T22:41:38;8.23;80.09
74376;HTU21D;62812;55.188;61.302;2022-09-09T22:44:08;8.19;80.83
74376;HTU21D;62812;55.188;61.302;2022-09-09T22:46:35;8.14;81.19
74376;HTU21D;62812;55.188;61.302;2022-09-09T22:49:03;8.11;81.65
74376;HTU21D;62812;55.188;61.302;2022-09-09T22:51:32;8.05;81.99
74376;HTU21D;62812;55.188;61.302;2022-09-09T22:53:59;8.00;82.57
74376;HTU21D;62812;55.188;61.302;2022-09-09T22:56:26;7.97;82.79
74376;HTU21D;62812;55.188;61.302;2022-09-09T22:58:54;7.91;83.31
74376;HTU21D;62812;55.188;61.302;2022-09-09T23:01:22;7.89;83.28
74376;HTU21D;62812;55.188;61.302;2022-09-09T23:03:50;7.86;83.23
74376;HTU21D;62812;55.188;61.302;2022-09-09T23:06:18;7.84;83.10
74376;HTU21D;62812;55.188;61.302;2022-09-09T23:08:50;7.82;83.39
74376;HTU21D;62812;55.188;61.302;2022-09-09T23:11:17;7.78;83.52
74376;HTU21D;62812;55.188;61.302;2022-09-09T23:13:49;7.75;83.39
74376;HTU21D;62812;55.188;61.302;2022-09-09T23:16:25;7.75;82.55
74376;HTU21D;62812;55.188;61.302;2022-09-09T23:18:53;7.72;82.99
74376;HTU21D;62812;55.188;61.302;2022-09-09T23:21:23;7.72;82.41
74376;HTU21D;62812;55.188;61.302;2022-09-09T23:23:53;7.72;81.47
74376;HTU21D;62812;55.188;61.302;2022-09-09T23:26:20;7.71;81.81
74376;HTU21D;62812;55.188;61.302;2022-09-09T23:28:49;7.73;80.57
74376;HTU21D;62812;55.188;61.302;2022-09-09T23:31:19;7.79;80.99
74376;HTU21D;62812;55.188;61.302;2022-09-09T23:33:46;7.83;80.96
74376;HTU21D;62812;55.188;61.302;2022-09-09T23:36:17;7.81;80.57
74376;HTU21D;62812;55.188;61.302;2022-09-09T23:38:44;7.76;80.72
74376;HTU21D;62812;55.188;61.302;2022-09-09T23:41:16;7.71;81.00
74376;HTU21D;62812;55.188;61.302;2022-09-09T23:43:46;7.71;81.20
74376;HTU21D;62812;55.188;61.302;2022-09-09T23:46:14;7.70;81.12
74376;HTU21D;62812;55.188;61.302;2022-09-09T23:48:42;7.77;80.53
74376;HTU21D;62812;55.188;61.302;2022-09-09T23:51:11;7.76;80.62
74376;HTU21D;62812;55.188;61.302;2022-09-09T23:53:43;7.75;79.05
74376;HTU21D;62812;55.188;61.302;2022-09-09T23:56:11;7.78;80.39
74376;HTU21D;62812;55.188;61.302;2022-09-09T23:58:39;7.78;80.17
